sensor_id;sensor_type;location;lat;lon;timestamp;pressure;altitude;pressure_sealevel;temperature;humidity
23168;BME280;32768;42.288;22.686;2022-07-18T00:01:04;96468.38;;;18.49;47.36
23168;BME280;32768;42.288;22.686;2022-07-18T00:03:30;96474.78;;;18.54;46.68
23168;BME280;32768;42.288;22.686;2022-07-18T00:05:55;96472.34;;;18.81;46.29
23168;BME280;32768;42.288;22.686;2022-07-18T00:08:20;96474.31;;;18.72;46.47
23168;BME280;32768;42.288;22.686;2022-07-18T00:10:46;96465.09;;;18.75;45.88
23168;BME280;32768;42.288;22.686;2022-07-18T00:13:11;96464.25;;;18.89;45.52
23168;BME280;32768;42.288;22.686;2022-07-18T00:15:36;96470.06;;;19.00;44.38
23168;BME280;32768;42.288;22.686;2022-07-18T00:18:02;96474.13;;;18.95;44.79
23168;BME280;32768;42.288;22.686;2022-07-18T00:20:27;96468.63;;;18.75;44.61
23168;BME280;32768;42.288;22.686;2022-07-18T00:22:54;96476.19;;;18.93;44.38
23168;BME280;32768;42.288;22.686;2022-07-18T00:25:19;96461.25;;;18.77;44.59
23168;BME280;32768;42.288;22.686;2022-07-18T00:27:45;96468.19;;;18.72;45.24
23168;BME280;32768;42.288;22.686;2022-07-18T00:30:10;96471.34;;;18.82;44.81
23168;BME280;32768;42.288;22.686;2022-07-18T00:32:35;96468.88;;;18.81;45.16
23168;BME280;32768;42.288;22.686;2022-07-18T00:35:01;96467.56;;;18.70;45.30
23168;BME280;32768;42.288;22.686;2022-07-18T00:37:26;96467.22;;;18.58;44.99
23168;BME280;32768;42.288;22.686;2022-07-18T00:39:51;96464.31;;;18.53;45.11
23168;BME280;32768;42.288;22.686;2022-07-18T00:42:17;96473.19;;;18.38;45.14
23168;BME280;32768;42.288;22.686;2022-07-18T00:44:42;96466.97;;;18.31;45.66
23168;BME280;32768;42.288;22.686;2022-07-18T00:47:07;96471.84;;;18.28;45.60
23168;BME280;32768;42.288;22.686;2022-07-18T00:49:33;96475.66;;;18.03;45.90
23168;BME280;32768;42.288;22.686;2022-07-18T00:51:58;96468.69;;;17.88;45.97
23168;BME280;32768;42.288;22.686;2022-07-18T00:54:23;96475.38;;;17.69;46.46
23168;BME280;32768;42.288;22.686;2022-07-18T00:56:49;96478.31;;;17.74;46.91
23168;BME280;32768;42.288;22.686;2022-07-18T00:59:16;96482.63;;;18.05;46.39
23168;BME280;32768;42.288;22.686;2022-07-18T01:01:41;96481.91;;;17.96;46.24
23168;BME280;32768;42.288;22.686;2022-07-18T01:04:22;96478.28;;;18.18;46.21
23168;BME280;32768;42.288;22.686;2022-07-18T01:06:48;96483.28;;;17.92;46.32
23168;BME280;32768;42.288;22.686;2022-07-18T01:09:14;96486.78;;;17.92;45.99
23168;BME280;32768;42.288;22.686;2022-07-18T01:11:40;96482.00;;;17.88;45.97
23168;BME280;32768;42.288;22.686;2022-07-18T01:14:06;96479.41;;;17.64;46.27
23168;BME280;32768;42.288;22.686;2022-07-18T01:16:31;96485.47;;;17.73;46.19
23168;BME280;32768;42.288;22.686;2022-07-18T01:18:57;96485.69;;;17.87;46.19
23168;BME280;32768;42.288;22.686;2022-07-18T01:21:22;96480.53;;;18.00;45.88
23168;BME280;32768;42.288;22.686;2022-07-18T01:23:48;96486.75;;;18.07;45.78
23168;BME280;32768;42.288;22.686;2022-07-18T01:26:14;96483.81;;;17.72;45.23
23168;BME280;32768;42.288;22.686;2022-07-18T01:28:40;96485.38;;;17.81;46.06
23168;BME280;32768;42.288;22.686;2022-07-18T01:31:05;96493.84;;;17.55;45.45
23168;BME280;32768;42.288;22.686;2022-07-18T01:33:32;96492.81;;;17.56;45.82
23168;BME280;32768;42.288;22.686;2022-07-18T01:35:58;96485.81;;;17.40;45.28
23168;BME280;32768;42.288;22.686;2022-07-18T01:38:25;96489.78;;;17.59;45.75
23168;BME280;32768;42.288;22.686;2022-07-18T01:40:50;96489.16;;;17.57;45.84
23168;BME280;32768;42.288;22.686;2022-07-18T01:43:15;96491.16;;;17.40;45.47
23168;BME280;32768;42.288;22.686;2022-07-18T01:45:40;96483.75;;;17.65;45.38
23168;BME280;32768;42.288;22.686;2022-07-18T01:48:06;96473.56;;;17.69;45.80
23168;BME280;32768;42.288;22.686;2022-07-18T01:50:31;96478.53;;;17.87;45.46
23168;BME280;32768;42.288;22.686;2022-07-18T01:52:56;96478.78;;;17.62;45.10
23168;BME280;32768;42.288;22.686;2022-07-18T01:55:22;96481.34;;;17.41;45.44
23168;BME280;32768;42.288;22.686;2022-07-18T01:57:47;96483.00;;;17.42;45.71
23168;BME280;32768;42.288;22.686;2022-07-18T02:00:12;96481.25;;;17.34;45.96
23168;BME280;32768;42.288;22.686;2022-07-18T02:02:38;96482.88;;;17.20;46.53
23168;BME280;32768;42.288;22.686;2022-07-18T02:05:04;96485.44;;;17.14;46.67
23168;BME280;32768;42.288;22.686;2022-07-18T02:07:37;96481.72;;;17.23;46.87
23168;BME280;32768;42.288;22.686;2022-07-18T02:10:06;96493.56;;;16.97;47.22
23168;BME280;32768;42.288;22.686;2022-07-18T02:12:32;96488.47;;;17.40;46.61
23168;BME280;32768;42.288;22.686;2022-07-18T02:14:58;96495.06;;;17.15;47.36
23168;BME280;32768;42.288;22.686;2022-07-18T02:17:23;96487.53;;;17.03;47.74
23168;BME280;32768;42.288;22.686;2022-07-18T02:19:48;96486.94;;;17.31;47.21
23168;BME280;32768;42.288;22.686;2022-07-18T02:22:14;96494.00;;;16.86;48.02
23168;BME280;32768;42.288;22.686;2022-07-18T02:24:39;96485.34;;;17.07;47.89
23168;BME280;32768;42.288;22.686;2022-07-18T02:27:05;96499.78;;;16.89;47.93
23168;BME280;32768;42.288;22.686;2022-07-18T02:29:30;96496.81;;;16.61;48.63
23168;BME280;32768;42.288;22.686;2022-07-18T02:31:56;96495.38;;;16.27;49.44
23168;BME280;32768;42.288;22.686;2022-07-18T02:34:21;96497.28;;;16.42;49.53
23168;BME280;32768;42.288;22.686;2022-07-18T02:36:46;96505.94;;;16.36;49.39
23168;BME280;32768;42.288;22.686;2022-07-18T02:39:12;96509.50;;;16.51;49.63
23168;BME280;32768;42.288;22.686;2022-07-18T02:41:39;96502.25;;;16.68;49.26
23168;BME280;32768;42.288;22.686;2022-07-18T02:44:04;96507.66;;;16.75;49.27
23168;BME280;32768;42.288;22.686;2022-07-18T02:46:29;96514.75;;;16.59;49.33
23168;BME280;32768;42.288;22.686;2022-07-18T02:48:55;96514.94;;;16.81;49.19
23168;BME280;32768;42.288;22.686;2022-07-18T02:51:20;96513.88;;;16.90;49.65
23168;BME280;32768;42.288;22.686;2022-07-18T02:53:45;96518.56;;;16.57;49.99
23168;BME280;32768;42.288;22.686;2022-07-18T02:56:11;96510.25;;;16.60;50.53
23168;BME280;32768;42.288;22.686;2022-07-18T02:58:36;96509.03;;;16.70;50.22
23168;BME280;32768;42.288;22.686;2022-07-18T03:01:01;96515.56;;;16.60;50.54
23168;BME280;32768;42.288;22.686;2022-07-18T03:03:27;96521.22;;;16.33;50.81
23168;BME280;32768;42.288;22.686;2022-07-18T03:05:52;96530.00;;;16.57;52.39
23168;BME280;32768;42.288;22.686;2022-07-18T03:08:17;96525.84;;;16.63;51.75
23168;BME280;32768;42.288;22.686;2022-07-18T03:10:43;96523.97;;;16.72;50.25
23168;BME280;32768;42.288;22.686;2022-07-18T03:13:08;96525.28;;;16.44;52.91
23168;BME280;32768;42.288;22.686;2022-07-18T03:15:35;96523.97;;;16.48;52.30
23168;BME280;32768;42.288;22.686;2022-07-18T03:18:01;96521.09;;;16.50;51.34
23168;BME280;32768;42.288;22.686;2022-07-18T03:20:26;96519.78;;;16.23;51.78
23168;BME280;32768;42.288;22.686;2022-07-18T03:22:51;96524.03;;;16.01;51.18
23168;BME280;32768;42.288;22.686;2022-07-18T03:25:16;96520.59;;;15.92;51.28
23168;BME280;32768;42.288;22.686;2022-07-18T03:27:42;96524.72;;;15.94;51.32
23168;BME280;32768;42.288;22.686;2022-07-18T03:30:07;96526.56;;;15.94;51.33
23168;BME280;32768;42.288;22.686;2022-07-18T03:32:33;96524.75;;;15.86;51.70
23168;BME280;32768;42.288;22.686;2022-07-18T03:34:58;96528.41;;;15.85;51.70
23168;BME280;32768;42.288;22.686;2022-07-18T03:37:23;96525.38;;;15.97;51.67
23168;BME280;32768;42.288;22.686;2022-07-18T03:39:48;96528.34;;;16.02;51.70
23168;BME280;32768;42.288;22.686;2022-07-18T03:42:14;96522.09;;;15.86;51.48
23168;BME280;32768;42.288;22.686;2022-07-18T03:44:39;96528.06;;;15.72;53.09
23168;BME280;32768;42.288;22.686;2022-07-18T03:47:04;96533.72;;;15.77;53.42
23168;BME280;32768;42.288;22.686;2022-07-18T03:49:29;96526.78;;;16.16;52.50
23168;BME280;32768;42.288;22.686;2022-07-18T03:51:55;96536.91;;;16.12;52.69
23168;BME280;32768;42.288;22.686;2022-07-18T03:54:21;96528.56;;;16.55;52.10
23168;BME280;32768;42.288;22.686;2022-07-18T03:56:46;96533.13;;;16.92;51.66
23168;BME280;32768;42.288;22.686;2022-07-18T03:59:11;96535.44;;;16.95;52.50
23168;BME280;32768;42.288;22.686;2022-07-18T04:01:36;96533.38;;;17.20;52.40
23168;BME280;32768;42.288;22.686;2022-07-18T04:04:02;96536.63;;;17.45;52.04
23168;BME280;32768;42.288;22.686;2022-07-18T04:06:27;96536.47;;;17.47;52.59
23168;BME280;32768;42.288;22.686;2022-07-18T04:08:53;96525.28;;;17.52;52.96
23168;BME280;32768;42.288;22.686;2022-07-18T04:11:18;96528.78;;;17.67;51.88
23168;BME280;32768;42.288;22.686;2022-07-18T04:13:48;96523.47;;;17.67;52.29
23168;BME280;32768;42.288;22.686;2022-07-18T04:16:14;96528.28;;;17.87;52.00
23168;BME280;32768;42.288;22.686;2022-07-18T04:18:39;96522.28;;;17.99;51.10
23168;BME280;32768;42.288;22.686;2022-07-18T04:21:04;96524.28;;;18.12;50.45
23168;BME280;32768;42.288;22.686;2022-07-18T04:23:30;96531.53;;;18.18;50.28
23168;BME280;32768;42.288;22.686;2022-07-18T04:25:55;96528.66;;;18.35;50.27
23168;BME280;32768;42.288;22.686;2022-07-18T04:28:20;96535.06;;;18.40;49.80
23168;BME280;32768;42.288;22.686;2022-07-18T04:30:45;96531.91;;;18.52;49.73
23168;BME280;32768;42.288;22.686;2022-07-18T04:33:11;96530.78;;;18.61;49.66
23168;BME280;32768;42.288;22.686;2022-07-18T04:35:37;96536.38;;;18.66;49.66
23168;BME280;32768;42.288;22.686;2022-07-18T04:38:04;96537.03;;;18.53;50.44
23168;BME280;32768;42.288;22.686;2022-07-18T04:40:30;96532.56;;;17.88;51.56
23168;BME280;32768;42.288;22.686;2022-07-18T04:42:55;96531.91;;;18.15;51.46
23168;BME280;32768;42.288;22.686;2022-07-18T04:45:22;96536.94;;;18.62;50.25
23168;BME280;32768;42.288;22.686;2022-07-18T04:47:51;96533.41;;;18.76;49.96
23168;BME280;32768;42.288;22.686;2022-07-18T04:50:16;96534.81;;;18.93;49.54
23168;BME280;32768;42.288;22.686;2022-07-18T04:52:43;96530.94;;;18.96;49.73
23168;BME280;32768;42.288;22.686;2022-07-18T04:55:09;96530.72;;;19.19;49.18
23168;BME280;32768;42.288;22.686;2022-07-18T04:57:35;96531.16;;;19.44;47.74
23168;BME280;32768;42.288;22.686;2022-07-18T05:00:03;96534.50;;;19.53;47.50
23168;BME280;32768;42.288;22.686;2022-07-18T05:02:28;96537.53;;;19.50;47.80
23168;BME280;32768;42.288;22.686;2022-07-18T05:04:54;96538.78;;;19.54;47.27
23168;BME280;32768;42.288;22.686;2022-07-18T05:07:19;96537.00;;;19.61;47.32
23168;BME280;32768;42.288;22.686;2022-07-18T05:09:44;96535.97;;;19.62;46.88
23168;BME280;32768;42.288;22.686;2022-07-18T05:12:10;96537.19;;;19.88;46.61
23168;BME280;32768;42.288;22.686;2022-07-18T05:14:35;96530.22;;;19.87;46.58
23168;BME280;32768;42.288;22.686;2022-07-18T05:17:00;96531.88;;;19.95;47.17
23168;BME280;32768;42.288;22.686;2022-07-18T05:19:26;96539.28;;;19.92;47.09
23168;BME280;32768;42.288;22.686;2022-07-18T05:21:51;96535.19;;;19.68;46.60
23168;BME280;32768;42.288;22.686;2022-07-18T05:24:16;96534.03;;;19.78;46.83
23168;BME280;32768;42.288;22.686;2022-07-18T05:26:42;96529.31;;;20.15;45.98
23168;BME280;32768;42.288;22.686;2022-07-18T05:29:07;96534.09;;;20.26;45.86
23168;BME280;32768;42.288;22.686;2022-07-18T05:31:33;96533.13;;;20.40;45.56
23168;BME280;32768;42.288;22.686;2022-07-18T05:33:58;96531.69;;;20.44;45.75
23168;BME280;32768;42.288;22.686;2022-07-18T05:36:23;96534.56;;;20.36;45.08
23168;BME280;32768;42.288;22.686;2022-07-18T05:38:48;96530.44;;;20.40;45.22
23168;BME280;32768;42.288;22.686;2022-07-18T05:41:14;96530.38;;;20.27;44.25
23168;BME280;32768;42.288;22.686;2022-07-18T05:43:39;96520.72;;;20.19;44.42
23168;BME280;32768;42.288;22.686;2022-07-18T05:46:05;96519.69;;;20.27;44.38
23168;BME280;32768;42.288;22.686;2022-07-18T05:48:30;96518.47;;;20.23;45.36
23168;BME280;32768;42.288;22.686;2022-07-18T05:50:55;96523.41;;;20.26;44.20
23168;BME280;32768;42.288;22.686;2022-07-18T05:53:21;96520.59;;;20.47;44.08
23168;BME280;32768;42.288;22.686;2022-07-18T05:55:46;96513.63;;;20.60;44.10
23168;BME280;32768;42.288;22.686;2022-07-18T05:58:11;96513.91;;;20.78;42.72
23168;BME280;32768;42.288;22.686;2022-07-18T06:00:37;96498.50;;;20.94;40.87
23168;BME280;32768;42.288;22.686;2022-07-18T06:03:02;96503.03;;;21.13;39.16
23168;BME280;32768;42.288;22.686;2022-07-18T06:05:27;96492.97;;;21.29;38.11
23168;BME280;32768;42.288;22.686;2022-07-18T06:07:53;96496.03;;;21.39;35.93
23168;BME280;32768;42.288;22.686;2022-07-18T06:10:19;96486.16;;;21.53;36.66
23168;BME280;32768;42.288;22.686;2022-07-18T06:12:44;96493.09;;;21.80;33.77
23168;BME280;32768;42.288;22.686;2022-07-18T06:15:09;96480.41;;;22.08;34.21
23168;BME280;32768;42.288;22.686;2022-07-18T06:17:36;96493.47;;;21.97;33.66
23168;BME280;32768;42.288;22.686;2022-07-18T06:20:01;96486.34;;;22.23;33.27
23168;BME280;32768;42.288;22.686;2022-07-18T06:22:30;96484.69;;;22.22;32.98
23168;BME280;32768;42.288;22.686;2022-07-18T06:24:55;96492.38;;;22.12;32.11
23168;BME280;32768;42.288;22.686;2022-07-18T06:27:20;96487.75;;;22.32;30.86
23168;BME280;32768;42.288;22.686;2022-07-18T06:29:45;96483.06;;;22.28;32.03
23168;BME280;32768;42.288;22.686;2022-07-18T06:32:11;96486.34;;;22.30;31.53
23168;BME280;32768;42.288;22.686;2022-07-18T06:34:36;96478.28;;;22.36;31.77
23168;BME280;32768;42.288;22.686;2022-07-18T06:37:01;96473.97;;;22.67;31.50
23168;BME280;32768;42.288;22.686;2022-07-18T06:39:27;96483.53;;;22.88;30.54
23168;BME280;32768;42.288;22.686;2022-07-18T06:41:52;96477.22;;;23.08;31.10
23168;BME280;32768;42.288;22.686;2022-07-18T06:44:17;96469.56;;;22.80;30.59
23168;BME280;32768;42.288;22.686;2022-07-18T06:46:42;96464.19;;;23.11;31.67
23168;BME280;32768;42.288;22.686;2022-07-18T06:49:08;96459.84;;;23.10;32.34
23168;BME280;32768;42.288;22.686;2022-07-18T06:51:33;96461.69;;;23.35;32.89
23168;BME280;32768;42.288;22.686;2022-07-18T06:53:59;96459.56;;;23.62;33.20
23168;BME280;32768;42.288;22.686;2022-07-18T06:56:24;96460.53;;;23.68;34.17
23168;BME280;32768;42.288;22.686;2022-07-18T06:58:50;96447.66;;;23.33;31.59
23168;BME280;32768;42.288;22.686;2022-07-18T07:01:16;96452.53;;;23.61;32.54
23168;BME280;32768;42.288;22.686;2022-07-18T07:03:42;96445.94;;;23.64;31.34
23168;BME280;32768;42.288;22.686;2022-07-18T07:06:07;96447.25;;;23.73;32.48
23168;BME280;32768;42.288;22.686;2022-07-18T07:08:32;96448.19;;;23.85;32.63
23168;BME280;32768;42.288;22.686;2022-07-18T07:10:59;96437.75;;;23.96;32.19
23168;BME280;32768;42.288;22.686;2022-07-18T07:13:24;96440.31;;;24.02;30.89
23168;BME280;32768;42.288;22.686;2022-07-18T07:15:50;96437.25;;;23.62;30.39
23168;BME280;32768;42.288;22.686;2022-07-18T07:18:15;96439.72;;;23.63;32.18
23168;BME280;32768;42.288;22.686;2022-07-18T07:20:40;96444.88;;;23.65;30.94
23168;BME280;32768;42.288;22.686;2022-07-18T07:23:05;96440.97;;;23.79;32.34
23168;BME280;32768;42.288;22.686;2022-07-18T07:25:32;96439.22;;;23.92;32.10
23168;BME280;32768;42.288;22.686;2022-07-18T07:27:58;96435.59;;;24.16;31.30
23168;BME280;32768;42.288;22.686;2022-07-18T07:30:23;96434.00;;;24.27;30.05
23168;BME280;32768;42.288;22.686;2022-07-18T07:32:48;96437.44;;;24.34;30.62
23168;BME280;32768;42.288;22.686;2022-07-18T07:35:15;96432.31;;;24.44;30.21
23168;BME280;32768;42.288;22.686;2022-07-18T07:37:42;96439.97;;;24.29;29.30
23168;BME280;32768;42.288;22.686;2022-07-18T07:40:08;96435.97;;;24.50;29.79
23168;BME280;32768;42.288;22.686;2022-07-18T07:42:34;96428.91;;;23.88;30.60
23168;BME280;32768;42.288;22.686;2022-07-18T07:44:59;96425.50;;;23.81;30.13
23168;BME280;32768;42.288;22.686;2022-07-18T07:47:24;96425.34;;;23.95;30.16
23168;BME280;32768;42.288;22.686;2022-07-18T07:49:50;96422.78;;;24.00;29.82
23168;BME280;32768;42.288;22.686;2022-07-18T07:52:15;96423.63;;;24.31;30.22
23168;BME280;32768;42.288;22.686;2022-07-18T07:54:42;96418.84;;;24.33;30.03
23168;BME280;32768;42.288;22.686;2022-07-18T07:57:10;96416.84;;;24.58;29.38
23168;BME280;32768;42.288;22.686;2022-07-18T08:02:49;96424.50;;;24.85;29.69
23168;BME280;32768;42.288;22.686;2022-07-18T08:05:15;96422.94;;;24.66;28.23
23168;BME280;32768;42.288;22.686;2022-07-18T08:07:42;96412.50;;;24.57;29.18
23168;BME280;32768;42.288;22.686;2022-07-18T08:10:07;96421.09;;;24.78;29.06
23168;BME280;32768;42.288;22.686;2022-07-18T08:12:33;96417.38;;;24.91;29.00
23168;BME280;32768;42.288;22.686;2022-07-18T08:14:58;96414.69;;;24.91;27.79
23168;BME280;32768;42.288;22.686;2022-07-18T08:17:23;96410.59;;;25.12;28.07
23168;BME280;32768;42.288;22.686;2022-07-18T08:19:48;96403.97;;;25.26;27.16
23168;BME280;32768;42.288;22.686;2022-07-18T08:22:14;96408.50;;;25.14;27.14
23168;BME280;32768;42.288;22.686;2022-07-18T08:24:39;96408.03;;;24.93;27.17
23168;BME280;32768;42.288;22.686;2022-07-18T08:27:05;96408.63;;;24.95;27.52
23168;BME280;32768;42.288;22.686;2022-07-18T08:29:31;96405.34;;;24.93;28.20
23168;BME280;32768;42.288;22.686;2022-07-18T08:31:56;96400.75;;;25.17;28.69
23168;BME280;32768;42.288;22.686;2022-07-18T08:34:22;96408.16;;;25.22;28.93
23168;BME280;32768;42.288;22.686;2022-07-18T08:36:47;96405.03;;;25.25;29.46
23168;BME280;32768;42.288;22.686;2022-07-18T08:39:12;96394.56;;;25.05;28.32
23168;BME280;32768;42.288;22.686;2022-07-18T08:41:37;96398.75;;;24.89;27.66
23168;BME280;32768;42.288;22.686;2022-07-18T08:44:08;96393.63;;;24.99;29.00
23168;BME280;32768;42.288;22.686;2022-07-18T08:46:33;96393.53;;;25.18;28.86
23168;BME280;32768;42.288;22.686;2022-07-18T08:49:00;96398.00;;;25.36;29.05
23168;BME280;32768;42.288;22.686;2022-07-18T08:51:25;96391.66;;;25.54;27.56
23168;BME280;32768;42.288;22.686;2022-07-18T08:53:51;96388.78;;;25.72;27.70
23168;BME280;32768;42.288;22.686;2022-07-18T08:56:18;96392.75;;;25.82;27.67
23168;BME280;32768;42.288;22.686;2022-07-18T08:58:44;96392.59;;;25.88;27.42
23168;BME280;32768;42.288;22.686;2022-07-18T09:01:09;96389.34;;;25.74;28.65
23168;BME280;32768;42.288;22.686;2022-07-18T09:03:35;96392.72;;;25.93;27.35
23168;BME280;32768;42.288;22.686;2022-07-18T09:06:10;96389.53;;;25.56;26.30
23168;BME280;32768;42.288;22.686;2022-07-18T09:08:40;96378.53;;;25.46;26.87
23168;BME280;32768;42.288;22.686;2022-07-18T09:11:09;96377.09;;;25.67;27.55
23168;BME280;32768;42.288;22.686;2022-07-18T09:13:36;96376.66;;;25.99;27.26
23168;BME280;32768;42.288;22.686;2022-07-18T09:16:12;96379.66;;;26.14;26.76
23168;BME280;32768;42.288;22.686;2022-07-18T09:18:39;96385.53;;;26.11;25.26
23168;BME280;32768;42.288;22.686;2022-07-18T09:23:33;96378.66;;;26.03;24.70
23168;BME280;32768;42.288;22.686;2022-07-18T09:25:59;96381.81;;;25.48;24.27
23168;BME280;32768;42.288;22.686;2022-07-18T09:28:25;96381.00;;;25.47;25.08
23168;BME280;32768;42.288;22.686;2022-07-18T09:30:51;96367.78;;;25.22;25.45
23168;BME280;32768;42.288;22.686;2022-07-18T09:33:16;96367.19;;;25.08;25.17
23168;BME280;32768;42.288;22.686;2022-07-18T09:35:43;96366.13;;;24.97;24.94
23168;BME280;32768;42.288;22.686;2022-07-18T09:38:10;96380.53;;;25.38;26.29
23168;BME280;32768;42.288;22.686;2022-07-18T09:40:40;96381.34;;;25.91;25.27
23168;BME280;32768;42.288;22.686;2022-07-18T09:43:07;96377.84;;;25.91;24.05
23168;BME280;32768;42.288;22.686;2022-07-18T09:45:34;96374.81;;;25.87;24.63
23168;BME280;32768;42.288;22.686;2022-07-18T09:48:03;96360.84;;;26.02;25.28
23168;BME280;32768;42.288;22.686;2022-07-18T09:50:31;96365.19;;;26.49;24.94
23168;BME280;32768;42.288;22.686;2022-07-18T09:52:57;96348.69;;;26.62;24.90
23168;BME280;32768;42.288;22.686;2022-07-18T09:55:23;96360.78;;;26.60;23.54
23168;BME280;32768;42.288;22.686;2022-07-18T09:57:58;96355.22;;;26.49;23.81
23168;BME280;32768;42.288;22.686;2022-07-18T10:00:26;96354.03;;;26.45;24.28
23168;BME280;32768;42.288;22.686;2022-07-18T10:02:51;96352.09;;;26.58;23.42
23168;BME280;32768;42.288;22.686;2022-07-18T10:05:17;96349.34;;;26.52;24.92
23168;BME280;32768;42.288;22.686;2022-07-18T10:07:42;96351.47;;;26.67;24.04
23168;BME280;32768;42.288;22.686;2022-07-18T10:10:08;96350.81;;;26.77;23.72
23168;BME280;32768;42.288;22.686;2022-07-18T10:12:33;96357.03;;;26.95;23.15
23168;BME280;32768;42.288;22.686;2022-07-18T10:14:58;96345.81;;;27.03;22.20
23168;BME280;32768;42.288;22.686;2022-07-18T10:17:24;96349.16;;;26.93;22.42
23168;BME280;32768;42.288;22.686;2022-07-18T10:19:49;96344.16;;;27.02;23.22
23168;BME280;32768;42.288;22.686;2022-07-18T10:22:15;96337.88;;;26.96;23.93
23168;BME280;32768;42.288;22.686;2022-07-18T10:24:40;96340.69;;;26.84;22.34
23168;BME280;32768;42.288;22.686;2022-07-18T10:27:14;96339.28;;;26.82;22.16
23168;BME280;32768;42.288;22.686;2022-07-18T10:29:40;96340.25;;;27.09;22.82
23168;BME280;32768;42.288;22.686;2022-07-18T10:32:32;96341.78;;;27.39;22.32
23168;BME280;32768;42.288;22.686;2022-07-18T10:34:58;96330.25;;;27.49;22.56
23168;BME280;32768;42.288;22.686;2022-07-18T10:37:24;96336.53;;;27.55;23.41
23168;BME280;32768;42.288;22.686;2022-07-18T10:39:49;96335.63;;;27.66;22.35
23168;BME280;32768;42.288;22.686;2022-07-18T10:42:16;96331.13;;;27.77;22.21
23168;BME280;32768;42.288;22.686;2022-07-18T10:44:43;96330.47;;;27.25;21.15
23168;BME280;32768;42.288;22.686;2022-07-18T10:57:31;96311.75;;;27.36;21.54
23168;BME280;32768;42.288;22.686;2022-07-18T11:02:32;96304.56;;;27.46;23.45
23168;BME280;32768;42.288;22.686;2022-07-18T11:04:57;96304.19;;;27.38;21.64
23168;BME280;32768;42.288;22.686;2022-07-18T11:07:23;96296.31;;;27.58;23.21
23168;BME280;32768;42.288;22.686;2022-07-18T11:09:48;96293.41;;;27.87;22.12
23168;BME280;32768;42.288;22.686;2022-07-18T11:14:58;96298.22;;;28.07;22.64
23168;BME280;32768;42.288;22.686;2022-07-18T11:22:51;96299.53;;;28.05;20.23
23168;BME280;32768;42.288;22.686;2022-07-18T11:25:16;96305.97;;;28.26;22.17
23168;BME280;32768;42.288;22.686;2022-07-18T11:27:42;96295.53;;;28.39;21.22
23168;BME280;32768;42.288;22.686;2022-07-18T11:30:08;96297.44;;;28.12;21.57
23168;BME280;32768;42.288;22.686;2022-07-18T11:32:33;96296.28;;;28.02;21.20
23168;BME280;32768;42.288;22.686;2022-07-18T11:34:59;96300.63;;;28.03;20.33
23168;BME280;32768;42.288;22.686;2022-07-18T11:37:25;96290.13;;;27.85;21.45
23168;BME280;32768;42.288;22.686;2022-07-18T11:39:50;96293.97;;;27.89;21.14
23168;BME280;32768;42.288;22.686;2022-07-18T11:42:16;96297.38;;;27.79;19.61
23168;BME280;32768;42.288;22.686;2022-07-18T11:44:43;96297.34;;;27.52;19.84
23168;BME280;32768;42.288;22.686;2022-07-18T11:47:09;96298.28;;;27.63;19.27
23168;BME280;32768;42.288;22.686;2022-07-18T11:49:36;96295.25;;;27.59;20.76
23168;BME280;32768;42.288;22.686;2022-07-18T11:52:02;96287.41;;;27.58;19.41
23168;BME280;32768;42.288;22.686;2022-07-18T11:54:28;96285.88;;;27.89;18.51
23168;BME280;32768;42.288;22.686;2022-07-18T11:56:54;96274.50;;;27.87;20.64
23168;BME280;32768;42.288;22.686;2022-07-18T11:59:20;96281.59;;;27.93;21.02
23168;BME280;32768;42.288;22.686;2022-07-18T12:01:45;96272.31;;;28.11;21.18
23168;BME280;32768;42.288;22.686;2022-07-18T12:04:21;96264.03;;;28.23;19.61
23168;BME280;32768;42.288;22.686;2022-07-18T12:07:11;96268.00;;;28.15;21.46
23168;BME280;32768;42.288;22.686;2022-07-18T12:09:31;96265.59;;;28.14;20.05
23168;BME280;32768;42.288;22.686;2022-07-18T12:11:57;96266.28;;;28.04;20.72
23168;BME280;32768;42.288;22.686;2022-07-18T12:14:31;96267.88;;;28.32;21.72
23168;BME280;32768;42.288;22.686;2022-07-18T12:16:57;96269.06;;;28.47;20.34
23168;BME280;32768;42.288;22.686;2022-07-18T12:19:31;96264.59;;;28.57;20.27
23168;BME280;32768;42.288;22.686;2022-07-18T12:22:04;96259.03;;;28.74;19.14
23168;BME280;32768;42.288;22.686;2022-07-18T12:24:30;96267.84;;;28.59;19.57
23168;BME280;32768;42.288;22.686;2022-07-18T12:27:06;96256.16;;;28.54;20.50
23168;BME280;32768;42.288;22.686;2022-07-18T12:29:52;96250.94;;;28.80;20.27
23168;BME280;32768;42.288;22.686;2022-07-18T12:32:17;96248.34;;;29.05;20.23
23168;BME280;32768;42.288;22.686;2022-07-18T12:34:56;96250.56;;;29.13;20.46
23168;BME280;32768;42.288;22.686;2022-07-18T12:51:30;96249.63;;;29.40;19.90
23168;BME280;32768;42.288;22.686;2022-07-18T12:53:56;96248.59;;;29.62;19.44
23168;BME280;32768;42.288;22.686;2022-07-18T12:56:24;96251.06;;;29.68;19.24
23168;BME280;32768;42.288;22.686;2022-07-18T12:58:49;96237.28;;;29.85;19.13
23168;BME280;32768;42.288;22.686;2022-07-18T13:01:15;96239.22;;;30.05;19.16
23168;BME280;32768;42.288;22.686;2022-07-18T13:03:40;96243.31;;;30.23;19.32
23168;BME280;32768;42.288;22.686;2022-07-18T13:06:05;96242.41;;;31.15;18.76
23168;BME280;32768;42.288;22.686;2022-07-18T13:08:31;96238.75;;;31.40;19.86
23168;BME280;32768;42.288;22.686;2022-07-18T13:10:57;96238.28;;;31.18;18.39
23168;BME280;32768;42.288;22.686;2022-07-18T13:13:23;96233.44;;;31.15;19.22
23168;BME280;32768;42.288;22.686;2022-07-18T13:15:48;96238.50;;;31.37;18.78
23168;BME280;32768;42.288;22.686;2022-07-18T13:18:13;96232.28;;;32.26;18.02
23168;BME280;32768;42.288;22.686;2022-07-18T13:20:40;96234.63;;;33.25;16.83
23168;BME280;32768;42.288;22.686;2022-07-18T13:23:05;96234.53;;;33.74;16.89
23168;BME280;32768;42.288;22.686;2022-07-18T13:25:30;96224.19;;;34.09;18.16